sensor_id;sensor_type;location;lat;lon;timestamp;pressure;altitude;pressure_sealevel;temperature;humidity
8641;BME280;4358;42.100;25.222;2022-11-30T00:00:14;100403.94;;;7.50;100.00
8641;BME280;4358;42.100;25.222;2022-11-30T00:02:41;100401.94;;;7.55;100.00
8641;BME280;4358;42.100;25.222;2022-11-30T00:05:08;100404.59;;;7.55;100.00
8641;BME280;4358;42.100;25.222;2022-11-30T00:07:35;100391.81;;;7.46;100.00
8641;BME280;4358;42.100;25.222;2022-11-30T00:10:03;100398.81;;;7.47;100.00
8641;BME280;4358;42.100;25.222;2022-11-30T00:12:31;100388.25;;;7.47;100.00
8641;BME280;4358;42.100;25.222;2022-11-30T00:14:59;100391.94;;;7.43;100.00
8641;BME280;4358;42.100;25.222;2022-11-30T00:17:26;100399.22;;;7.38;100.00
8641;BME280;4358;42.100;25.222;2022-11-30T00:19:53;100391.28;;;7.38;100.00
8641;BME280;4358;42.100;25.222;2022-11-30T00:22:20;100403.94;;;7.50;100.00
8641;BME280;4358;42.100;25.222;2022-11-30T00:24:47;100403.81;;;7.53;100.00
8641;BME280;4358;42.100;25.222;2022-11-30T00:27:13;100392.81;;;7.44;100.00
8641;BME280;4358;42.100;25.222;2022-11-30T00:29:40;100396.63;;;7.18;100.00
8641;BME280;4358;42.100;25.222;2022-11-30T00:32:09;100401.78;;;7.21;100.00
8641;BME280;4358;42.100;25.222;2022-11-30T00:34:35;100394.38;;;7.29;100.00
8641;BME280;4358;42.100;25.222;2022-11-30T00:37:02;100399.00;;;7.24;100.00
8641;BME280;4358;42.100;25.222;2022-11-30T00:39:29;100397.16;;;7.26;100.00
8641;BME280;4358;42.100;25.222;2022-11-30T00:41:56;100390.97;;;7.27;100.00
8641;BME280;4358;42.100;25.222;2022-11-30T00:44:23;100394.25;;;7.32;100.00
8641;BME280;4358;42.100;25.222;2022-11-30T00:46:50;100392.53;;;7.31;100.00
8641;BME280;4358;42.100;25.222;2022-11-30T00:49:18;100380.53;;;7.24;100.00
8641;BME280;4358;42.100;25.222;2022-11-30T00:51:44;100394.63;;;7.23;100.00
8641;BME280;4358;42.100;25.222;2022-11-30T00:54:11;100390.09;;;7.27;100.00
8641;BME280;4358;42.100;25.222;2022-11-30T00:56:38;100387.53;;;7.25;100.00
8641;BME280;4358;42.100;25.222;2022-11-30T00:59:05;100394.78;;;7.20;100.00
8641;BME280;4358;42.100;25.222;2022-11-30T01:01:32;100389.50;;;7.20;100.00
8641;BME280;4358;42.100;25.222;2022-11-30T01:04:00;100390.06;;;7.08;100.00
8641;BME280;4358;42.100;25.222;2022-11-30T01:06:29;100394.00;;;7.18;100.00
8641;BME280;4358;42.100;25.222;2022-11-30T01:08:56;100393.28;;;7.14;100.00
8641;BME280;4358;42.100;25.222;2022-11-30T01:11:25;100391.78;;;7.09;100.00
8641;BME280;4358;42.100;25.222;2022-11-30T01:13:53;100385.63;;;7.08;100.00
8641;BME280;4358;42.100;25.222;2022-11-30T01:16:22;100390.97;;;7.07;100.00
8641;BME280;4358;42.100;25.222;2022-11-30T01:18:50;100386.75;;;7.03;100.00
8641;BME280;4358;42.100;25.222;2022-11-30T01:21:18;100382.03;;;7.11;100.00
8641;BME280;4358;42.100;25.222;2022-11-30T01:23:47;100381.94;;;7.12;100.00
8641;BME280;4358;42.100;25.222;2022-11-30T01:26:15;100380.78;;;7.18;100.00
8641;BME280;4358;42.100;25.222;2022-11-30T01:28:42;100387.84;;;7.17;100.00
8641;BME280;4358;42.100;25.222;2022-11-30T01:31:11;100396.78;;;7.15;100.00
8641;BME280;4358;42.100;25.222;2022-11-30T01:33:38;100391.94;;;7.06;100.00
8641;BME280;4358;42.100;25.222;2022-11-30T01:36:09;100390.16;;;7.06;100.00
8641;BME280;4358;42.100;25.222;2022-11-30T01:38:38;100383.59;;;7.15;100.00
8641;BME280;4358;42.100;25.222;2022-11-30T01:41:08;100381.38;;;7.06;100.00
8641;BME280;4358;42.100;25.222;2022-11-30T01:43:40;100391.50;;;7.15;100.00
8641;BME280;4358;42.100;25.222;2022-11-30T01:46:21;100383.44;;;7.18;100.00
8641;BME280;4358;42.100;25.222;2022-11-30T01:48:55;100382.13;;;7.08;100.00
8641;BME280;4358;42.100;25.222;2022-11-30T01:51:25;100382.03;;;7.11;100.00
8641;BME280;4358;42.100;25.222;2022-11-30T01:53:54;100385.38;;;7.14;100.00
8641;BME280;4358;42.100;25.222;2022-11-30T01:56:22;100385.38;;;7.14;100.00
8641;BME280;4358;42.100;25.222;2022-11-30T01:58:49;100382.03;;;7.11;100.00
8641;BME280;4358;42.100;25.222;2022-11-30T02:01:16;100380.94;;;7.15;100.00
8641;BME280;4358;42.100;25.222;2022-11-30T02:03:49;100380.41;;;7.07;100.00
8641;BME280;4358;42.100;25.222;2022-11-30T02:06:19;100379.88;;;7.19;100.00
8641;BME280;4358;42.100;25.222;2022-11-30T02:08:47;100377.19;;;7.20;100.00
8641;BME280;4358;42.100;25.222;2022-11-30T02:11:14;100366.56;;;7.22;100.00
8641;BME280;4358;42.100;25.222;2022-11-30T02:13:55;100367.53;;;7.19;100.00
8641;BME280;4358;42.100;25.222;2022-11-30T02:16:26;100364.97;;;7.18;100.00
8641;BME280;4358;42.100;25.222;2022-11-30T02:19:03;100367.69;;;7.16;100.00
8641;BME280;4358;42.100;25.222;2022-11-30T02:21:38;100363.53;;;7.11;100.00
8641;BME280;4358;42.100;25.222;2022-11-30T02:24:33;100373.63;;;7.21;100.00
8641;BME280;4358;42.100;25.222;2022-11-30T02:27:10;100368.41;;;7.20;100.00
8641;BME280;4358;42.100;25.222;2022-11-30T02:29:42;100370.13;;;7.21;100.00
8641;BME280;4358;42.100;25.222;2022-11-30T02:32:16;100375.13;;;7.27;100.00
8641;BME280;4358;42.100;25.222;2022-11-30T02:34:46;100381.97;;;7.31;100.00
8641;BME280;4358;42.100;25.222;2022-11-30T02:37:15;100377.28;;;7.38;100.00
8641;BME280;4358;42.100;25.222;2022-11-30T02:39:43;100384.81;;;7.45;100.00
8641;BME280;4358;42.100;25.222;2022-11-30T02:42:10;100380.81;;;7.37;100.00
8641;BME280;4358;42.100;25.222;2022-11-30T02:44:38;100377.53;;;7.50;100.00
8641;BME280;4358;42.100;25.222;2022-11-30T02:47:21;100380.34;;;7.47;100.00
8641;BME280;4358;42.100;25.222;2022-11-30T02:49:53;100377.81;;;7.44;100.00
8641;BME280;4358;42.100;25.222;2022-11-30T02:52:23;100388.09;;;7.50;100.00
8641;BME280;4358;42.100;25.222;2022-11-30T02:54:51;100384.81;;;7.45;100.00
8641;BME280;4358;42.100;25.222;2022-11-30T02:57:18;100382.88;;;7.49;100.00
8641;BME280;4358;42.100;25.222;2022-11-30T02:59:45;100377.69;;;7.47;100.00
8641;BME280;4358;42.100;25.222;2022-11-30T03:02:12;100393.31;;;7.52;100.00
8641;BME280;4358;42.100;25.222;2022-11-30T03:04:40;100374.03;;;7.50;100.00
8641;BME280;4358;42.100;25.222;2022-11-30T03:07:07;100390.31;;;7.59;100.00
8641;BME280;4358;42.100;25.222;2022-11-30T03:09:34;100392.19;;;7.57;100.00
8641;BME280;4358;42.100;25.222;2022-11-30T03:12:01;100399.81;;;7.63;100.00
8641;BME280;4358;42.100;25.222;2022-11-30T03:14:28;100390.47;;;7.56;100.00
8641;BME280;4358;42.100;25.222;2022-11-30T03:16:55;100389.38;;;7.60;100.00
8641;BME280;4358;42.100;25.222;2022-11-30T03:19:22;100412.22;;;7.61;100.00
8641;BME280;4358;42.100;25.222;2022-11-30T03:21:50;100398.56;;;7.71;100.00
8641;BME280;4358;42.100;25.222;2022-11-30T03:24:17;100405.31;;;7.78;100.00
8641;BME280;4358;42.100;25.222;2022-11-30T03:26:43;100395.94;;;7.71;100.00
8641;BME280;4358;42.100;25.222;2022-11-30T03:29:10;100400.88;;;7.78;100.00
8641;BME280;4358;42.100;25.222;2022-11-30T03:31:37;100407.78;;;7.81;100.00
8641;BME280;4358;42.100;25.222;2022-11-30T03:34:04;100407.78;;;7.81;100.00
8641;BME280;4358;42.100;25.222;2022-11-30T03:36:31;100407.78;;;7.81;100.00
8641;BME280;4358;42.100;25.222;2022-11-30T03:38:59;100409.66;;;7.79;100.00
8641;BME280;4358;42.100;25.222;2022-11-30T03:41:26;100403.22;;;7.84;100.00
8641;BME280;4358;42.100;25.222;2022-11-30T03:43:53;100395.66;;;7.77;100.00
8641;BME280;4358;42.100;25.222;2022-11-30T03:46:21;100401.97;;;7.74;100.00
8641;BME280;4358;42.100;25.222;2022-11-30T03:48:48;100410.00;;;7.71;100.00
8641;BME280;4358;42.100;25.222;2022-11-30T03:51:15;100415.34;;;7.70;100.00
8641;BME280;4358;42.100;25.222;2022-11-30T03:53:42;100416.31;;;7.69;100.00
8641;BME280;4358;42.100;25.222;2022-11-30T03:56:11;100416.09;;;7.73;100.00
8641;BME280;4358;42.100;25.222;2022-11-30T03:58:38;100409.78;;;7.76;100.00
8641;BME280;4358;42.100;25.222;2022-11-30T04:01:08;100399.09;;;7.79;100.00
8641;BME280;4358;42.100;25.222;2022-11-30T04:03:35;100402.22;;;7.87;100.00
8641;BME280;4358;42.100;25.222;2022-11-30T04:06:03;100402.78;;;7.75;100.00
8641;BME280;4358;42.100;25.222;2022-11-30T04:08:31;100408.44;;;7.67;100.00
8641;BME280;4358;42.100;25.222;2022-11-30T04:10:59;100410.38;;;7.63;100.00
8641;BME280;4358;42.100;25.222;2022-11-30T04:13:29;100423.38;;;7.68;100.00
8641;BME280;4358;42.100;25.222;2022-11-30T04:15:56;100422.34;;;7.71;100.00
8641;BME280;4358;42.100;25.222;2022-11-30T04:18:24;100421.50;;;7.70;100.00
8641;BME280;4358;42.100;25.222;2022-11-30T04:20:51;100433.09;;;7.68;100.00
8641;BME280;4358;42.100;25.222;2022-11-30T04:23:19;100425.72;;;7.74;100.00
8641;BME280;4358;42.100;25.222;2022-11-30T04:25:46;100422.22;;;7.74;100.00
8641;BME280;4358;42.100;25.222;2022-11-30T04:28:14;100421.38;;;7.73;100.00
8641;BME280;4358;42.100;25.222;2022-11-30T04:30:42;100422.50;;;7.68;100.00
8641;BME280;4358;42.100;25.222;2022-11-30T04:33:11;100436.22;;;7.76;100.00
8641;BME280;4358;42.100;25.222;2022-11-30T04:35:38;100430.91;;;7.76;100.00
8641;BME280;4358;42.100;25.222;2022-11-30T04:38:06;100433.09;;;7.68;100.00
8641;BME280;4358;42.100;25.222;2022-11-30T04:40:33;100435.63;;;7.50;100.00
8641;BME280;4358;42.100;25.222;2022-11-30T04:43:00;100430.50;;;7.47;100.00
8641;BME280;4358;42.100;25.222;2022-11-30T04:45:27;100431.66;;;7.60;100.00
8641;BME280;4358;42.100;25.222;2022-11-30T04:47:55;100438.78;;;7.77;100.00
8641;BME280;4358;42.100;25.222;2022-11-30T04:50:22;100434.59;;;7.73;100.00
8641;BME280;4358;42.100;25.222;2022-11-30T04:52:49;100439.78;;;7.75;100.00
8641;BME280;4358;42.100;25.222;2022-11-30T04:55:16;100437.81;;;7.80;100.00
8641;BME280;4358;42.100;25.222;2022-11-30T04:57:44;100427.88;;;7.85;100.00
8641;BME280;4358;42.100;25.222;2022-11-30T05:00:13;100440.94;;;7.88;100.00
8641;BME280;4358;42.100;25.222;2022-11-30T05:02:40;100433.00;;;7.88;100.00
8641;BME280;4358;42.100;25.222;2022-11-30T05:05:09;100437.19;;;7.92;100.00
8641;BME280;4358;42.100;25.222;2022-11-30T05:07:36;100434.56;;;7.92;100.00
8641;BME280;4358;42.100;25.222;2022-11-30T05:10:05;100439.22;;;7.87;100.00
8641;BME280;4358;42.100;25.222;2022-11-30T05:12:32;100442.66;;;7.89;100.00
8641;BME280;4358;42.100;25.222;2022-11-30T05:14:59;100455.41;;;7.98;100.00
8641;BME280;4358;42.100;25.222;2022-11-30T05:17:26;100451.00;;;7.98;100.00
8641;BME280;4358;42.100;25.222;2022-11-30T05:19:53;100448.28;;;8.00;100.00
8641;BME280;4358;42.100;25.222;2022-11-30T05:22:21;100454.34;;;8.02;100.00
8641;BME280;4358;42.100;25.222;2022-11-30T05:24:48;100452.31;;;8.07;100.00
8641;BME280;4358;42.100;25.222;2022-11-30T05:27:15;100451.34;;;8.09;100.00
8641;BME280;4358;42.100;25.222;2022-11-30T05:29:41;100451.47;;;8.06;100.00
8641;BME280;4358;42.100;25.222;2022-11-30T05:32:08;100448.06;;;8.04;100.00
8641;BME280;4358;42.100;25.222;2022-11-30T05:34:35;100448.50;;;7.95;100.00
8641;BME280;4358;42.100;25.222;2022-11-30T05:37:02;100452.34;;;7.88;100.00
8641;BME280;4358;42.100;25.222;2022-11-30T05:39:30;100449.66;;;7.90;100.00
8641;BME280;4358;42.100;25.222;2022-11-30T05:41:57;100465.75;;;8.02;100.00
8641;BME280;4358;42.100;25.222;2022-11-30T05:44:24;100459.50;;;8.05;100.00
8641;BME280;4358;42.100;25.222;2022-11-30T05:46:51;100465.41;;;7.91;100.00
8641;BME280;4358;42.100;25.222;2022-11-30T05:49:17;100467.06;;;7.94;100.00
8641;BME280;4358;42.100;25.222;2022-11-30T05:51:44;100462.34;;;8.00;100.00
8641;BME280;4358;42.100;25.222;2022-11-30T05:54:11;100466.06;;;7.96;100.00
8641;BME280;4358;42.100;25.222;2022-11-30T05:56:39;100470.28;;;8.00;100.00
8641;BME280;4358;42.100;25.222;2022-11-30T05:59:08;100475.69;;;7.97;100.00
8641;BME280;4358;42.100;25.222;2022-11-30T06:01:35;100475.34;;;8.05;100.00
8641;BME280;4358;42.100;25.222;2022-11-30T06:04:03;100468.06;;;8.10;100.00
8641;BME280;4358;42.100;25.222;2022-11-30T06:06:31;100483.13;;;8.08;100.00
8641;BME280;4358;42.100;25.222;2022-11-30T06:08:57;100476.41;;;8.20;100.00
8641;BME280;4358;42.100;25.222;2022-11-30T06:11:24;100481.25;;;8.29;100.00
8641;BME280;4358;42.100;25.222;2022-11-30T06:13:52;100484.63;;;8.32;100.00
8641;BME280;4358;42.100;25.222;2022-11-30T06:16:19;100480.34;;;8.30;100.00
8641;BME280;4358;42.100;25.222;2022-11-30T06:18:46;100483.03;;;8.28;100.00
8641;BME280;4358;42.100;25.222;2022-11-30T06:21:13;100490.47;;;8.39;100.00
8641;BME280;4358;42.100;25.222;2022-11-30T06:23:40;100490.88;;;8.48;100.00
8641;BME280;4358;42.100;25.222;2022-11-30T06:26:08;100485.75;;;8.45;100.00
8641;BME280;4358;42.100;25.222;2022-11-30T06:28:36;100494.31;;;8.50;100.00
8641;BME280;4358;42.100;25.222;2022-11-30T06:31:06;100495.81;;;8.56;100.00
8641;BME280;4358;42.100;25.222;2022-11-30T06:33:33;100495.88;;;8.55;100.00
8641;BME280;4358;42.100;25.222;2022-11-30T06:36:00;100491.84;;;8.47;100.00
8641;BME280;4358;42.100;25.222;2022-11-30T06:38:27;100506.75;;;8.48;100.00
8641;BME280;4358;42.100;25.222;2022-11-30T06:40:54;100515.47;;;8.50;100.00
8641;BME280;4358;42.100;25.222;2022-11-30T06:43:20;100517.16;;;8.34;100.00
8641;BME280;4358;42.100;25.222;2022-11-30T06:45:47;100508.28;;;8.35;100.00
8641;BME280;4358;42.100;25.222;2022-11-30T06:48:16;100499.19;;;8.41;100.00
8641;BME280;4358;42.100;25.222;2022-11-30T06:50:42;100504.44;;;8.42;100.00
8641;BME280;4358;42.100;25.222;2022-11-30T06:53:09;100509.63;;;8.44;100.00
8641;BME280;4358;42.100;25.222;2022-11-30T06:55:36;100507.19;;;8.39;100.00
8641;BME280;4358;42.100;25.222;2022-11-30T06:58:04;100515.31;;;8.36;100.00
8641;BME280;4358;42.100;25.222;2022-11-30T07:00:32;100519.94;;;8.31;100.00
8641;BME280;4358;42.100;25.222;2022-11-30T07:02:58;100514.00;;;8.26;100.00
8641;BME280;4358;42.100;25.222;2022-11-30T07:05:27;100516.63;;;8.26;100.00
8641;BME280;4358;42.100;25.222;2022-11-30T07:07:54;100518.31;;;8.27;100.00
8641;BME280;4358;42.100;25.222;2022-11-30T07:10:21;100508.34;;;8.34;100.00
8641;BME280;4358;42.100;25.222;2022-11-30T07:12:48;100508.13;;;8.38;100.00
8641;BME280;4358;42.100;25.222;2022-11-30T07:15:15;100523.34;;;8.33;100.00
8641;BME280;4358;42.100;25.222;2022-11-30T07:17:41;100524.16;;;8.35;100.00
8641;BME280;4358;42.100;25.222;2022-11-30T07:20:08;100518.81;;;8.37;100.00
8641;BME280;4358;42.100;25.222;2022-11-30T07:22:37;100523.34;;;8.33;100.00
8641;BME280;4358;42.100;25.222;2022-11-30T07:25:04;100525.50;;;8.25;100.00
8641;BME280;4358;42.100;25.222;2022-11-30T07:27:48;100533.88;;;8.35;100.00
8641;BME280;4358;42.100;25.222;2022-11-30T07:30:16;100532.50;;;8.26;100.00
8641;BME280;4358;42.100;25.222;2022-11-30T07:32:43;100530.63;;;8.28;100.00
8641;BME280;4358;42.100;25.222;2022-11-30T07:35:09;100528.06;;;8.27;100.00
8641;BME280;4358;42.100;25.222;2022-11-30T07:37:38;100535.66;;;8.34;100.00
8641;BME280;4358;42.100;25.222;2022-11-30T07:40:06;100540.94;;;8.34;100.00
8641;BME280;4358;42.100;25.222;2022-11-30T07:42:33;100527.94;;;8.30;100.00
8641;BME280;4358;42.100;25.222;2022-11-30T07:44:59;100534.09;;;8.30;100.00
8641;BME280;4358;42.100;25.222;2022-11-30T07:47:26;100532.03;;;8.37;100.00
8641;BME280;4358;42.100;25.222;2022-11-30T07:49:53;100541.59;;;8.39;100.00
8641;BME280;4358;42.100;25.222;2022-11-30T07:52:20;100539.31;;;8.32;100.00
8641;BME280;4358;42.100;25.222;2022-11-30T07:54:48;100540.25;;;8.31;100.00
8641;BME280;4358;42.100;25.222;2022-11-30T07:57:15;100532.50;;;8.26;100.00
8641;BME280;4358;42.100;25.222;2022-11-30T07:59:42;100537.91;;;8.23;100.00
8641;BME280;4358;42.100;25.222;2022-11-30T08:02:09;100529.50;;;8.15;100.00
8641;BME280;4358;42.100;25.222;2022-11-30T08:04:36;100536.13;;;8.24;100.00
8641;BME280;4358;42.100;25.222;2022-11-30T08:07:02;100535.22;;;8.25;100.00
8641;BME280;4358;42.100;25.222;2022-11-30T08:09:29;100543.94;;;8.27;100.00
8641;BME280;4358;42.100;25.222;2022-11-30T08:11:57;100548.22;;;8.29;100.00
8641;BME280;4358;42.100;25.222;2022-11-30T08:14:24;100552.81;;;8.26;100.00
8641;BME280;4358;42.100;25.222;2022-11-30T08:16:51;100548.38;;;8.26;100.00
8641;BME280;4358;42.100;25.222;2022-11-30T08:19:18;100538.19;;;8.17;100.00
8641;BME280;4358;42.100;25.222;2022-11-30T08:21:44;100546.78;;;8.22;100.00
8641;BME280;4358;42.100;25.222;2022-11-30T08:24:11;100548.50;;;8.23;100.00
8641;BME280;4358;42.100;25.222;2022-11-30T08:26:38;100538.78;;;8.24;100.00
8641;BME280;4358;42.100;25.222;2022-11-30T08:29:08;100546.41;;;8.31;100.00
8641;BME280;4358;42.100;25.222;2022-11-30T08:31:36;100542.81;;;8.32;100.00
8641;BME280;4358;42.100;25.222;2022-11-30T08:34:05;100536.34;;;8.38;100.00
8641;BME280;4358;42.100;25.222;2022-11-30T08:36:33;100542.50;;;8.38;100.00
8641;BME280;4358;42.100;25.222;2022-11-30T08:39:02;100535.66;;;8.34;100.00
8641;BME280;4358;42.100;25.222;2022-11-30T08:41:29;100546.66;;;8.44;100.00
8641;BME280;4358;42.100;25.222;2022-11-30T08:43:56;100533.53;;;8.42;100.00
8641;BME280;4358;42.100;25.222;2022-11-30T08:46:24;100521.06;;;8.44;100.00
8641;BME280;4358;42.100;25.222;2022-11-30T08:48:52;100525.25;;;8.48;100.00
8641;BME280;4358;42.100;25.222;2022-11-30T08:51:19;100518.41;;;8.44;100.00
8641;BME280;4358;42.100;25.222;2022-11-30T08:53:47;100521.06;;;8.44;100.00
8641;BME280;4358;42.100;25.222;2022-11-30T08:56:16;100517.31;;;8.48;100.00
8641;BME280;4358;42.100;25.222;2022-11-30T08:58:44;100523.34;;;8.52;100.00
8641;BME280;4358;42.100;25.222;2022-11-30T09:01:12;100519.97;;;8.48;100.00
8641;BME280;4358;42.100;25.222;2022-11-30T09:03:42;100523.13;;;8.38;100.00
8641;BME280;4358;42.100;25.222;2022-11-30T09:06:10;100523.88;;;8.41;100.00
8641;BME280;4358;42.100;25.222;2022-11-30T09:08:39;100520.44;;;8.39;100.00
8641;BME280;4358;42.100;25.222;2022-11-30T09:11:07;100515.13;;;8.39;100.00
8641;BME280;4358;42.100;25.222;2022-11-30T09:13:34;100514.22;;;8.40;100.00
8641;BME280;4358;42.100;25.222;2022-11-30T09:16:01;100514.84;;;8.45;100.00
8641;BME280;4358;42.100;25.222;2022-11-30T09:18:28;100515.66;;;8.47;100.00
8641;BME280;4358;42.100;25.222;2022-11-30T09:20:59;100512.03;;;8.48;100.00
8641;BME280;4358;42.100;25.222;2022-11-30T09:23:26;100517.25;;;8.50;100.00
8641;BME280;4358;42.100;25.222;2022-11-30T09:25:56;100502.94;;;8.37;100.00
8641;BME280;4358;42.100;25.222;2022-11-30T09:28:24;100514.91;;;8.44;100.00
8641;BME280;4358;42.100;25.222;2022-11-30T09:30:51;100512.38;;;8.42;100.00
8641;BME280;4358;42.100;25.222;2022-11-30T09:33:19;100515.19;;;8.38;100.00
8641;BME280;4358;42.100;25.222;2022-11-30T09:35:54;100505.19;;;8.44;100.00
8641;BME280;4358;42.100;25.222;2022-11-30T09:38:22;100515.84;;;8.43;100.00
8641;BME280;4358;42.100;25.222;2022-11-30T09:40:53;100510.03;;;8.54;100.00
8641;BME280;4358;42.100;25.222;2022-11-30T09:43:29;100506.75;;;8.48;100.00
8641;BME280;4358;42.100;25.222;2022-11-30T09:46:02;100513.75;;;8.49;100.00
8641;BME280;4358;42.100;25.222;2022-11-30T09:48:50;100511.19;;;8.48;100.00
8641;BME280;4358;42.100;25.222;2022-11-30T09:51:23;100506.13;;;8.43;100.00
8641;BME280;4358;42.100;25.222;2022-11-30T09:53:55;100502.78;;;8.40;100.00
8641;BME280;4358;42.100;25.222;2022-11-30T09:56:26;100497.47;;;8.40;100.00
8641;BME280;4358;42.100;25.222;2022-11-30T09:58:59;100496.91;;;8.33;100.00
8641;BME280;4358;42.100;25.222;2022-11-30T10:01:27;100496.78;;;8.36;100.00
8641;BME280;4358;42.100;25.222;2022-11-30T10:03:53;100498.47;;;8.37;100.00
8641;BME280;4358;42.100;25.222;2022-11-30T10:06:26;100498.06;;;8.46;100.00
8641;BME280;4358;42.100;25.222;2022-11-30T10:09:06;100499.44;;;8.54;100.00
8641;BME280;4358;42.100;25.222;2022-11-30T10:11:44;100506.31;;;8.58;100.00
8641;BME280;4358;42.100;25.222;2022-11-30T10:14:39;100499.59;;;8.50;100.00
8641;BME280;4358;42.100;25.222;2022-11-30T10:17:20;100506.44;;;8.55;100.00
8641;BME280;4358;42.100;25.222;2022-11-30T10:20:02;100503.03;;;8.53;100.00
8641;BME280;4358;42.100;25.222;2022-11-30T10:22:38;100509.38;;;8.48;100.00
8641;BME280;4358;42.100;25.222;2022-11-30T10:25:19;100506.41;;;8.37;100.00
8641;BME280;4358;42.100;25.222;2022-11-30T10:27:49;100508.91;;;8.40;100.00
8641;BME280;4358;42.100;25.222;2022-11-30T10:30:19;100495.63;;;8.42;100.00
8641;BME280;4358;42.100;25.222;2022-11-30T10:32:50;100502.06;;;8.36;100.00
8641;BME280;4358;42.100;25.222;2022-11-30T10:35:28;100501.63;;;8.45;100.00
8641;BME280;4358;42.100;25.222;2022-11-30T10:38:02;100501.78;;;8.42;100.00
8641;BME280;4358;42.100;25.222;2022-11-30T10:40:37;100497.31;;;8.43;100.00
8641;BME280;4358;42.100;25.222;2022-11-30T10:43:14;100493.97;;;8.39;100.00
8641;BME280;4358;42.100;25.222;2022-11-30T10:45:47;100497.31;;;8.43;100.00
8641;BME280;4358;42.100;25.222;2022-11-30T10:48:16;100491.28;;;8.41;100.00
8641;BME280;4358;42.100;25.222;2022-11-30T10:50:45;100492.03;;;8.43;100.00
8641;BME280;4358;42.100;25.222;2022-11-30T10:53:13;100500.81;;;8.43;100.00
8641;BME280;4358;42.100;25.222;2022-11-30T10:55:42;100503.75;;;8.37;100.00
8641;BME280;4358;42.100;25.222;2022-11-30T10:58:17;100496.78;;;8.36;100.00
8641;BME280;4358;42.100;25.222;2022-11-30T11:00:52;100501.06;;;8.39;100.00
8641;BME280;4358;42.100;25.222;2022-11-30T11:03:23;100487.25;;;8.32;100.00
8641;BME280;4358;42.100;25.222;2022-11-30T11:06:02;100492.69;;;8.29;100.00
8641;BME280;4358;42.100;25.222;2022-11-30T11:08:31;100489.47;;;8.23;100.00
8641;BME280;4358;42.100;25.222;2022-11-30T11:11:00;100494.00;;;8.21;100.00
8641;BME280;4358;42.100;25.222;2022-11-30T11:13:37;100491.97;;;8.26;100.00
8641;BME280;4358;42.100;25.222;2022-11-30T11:16:06;100493.59;;;8.28;100.00
8641;BME280;4358;42.100;25.222;2022-11-30T11:18:33;100493.56;;;8.30;100.00
8641;BME280;4358;42.100;25.222;2022-11-30T11:21:04;100490.88;;;8.31;100.00
8641;BME280;4358;42.100;25.222;2022-11-30T11:23:34;100493.34;;;8.34;100.00
8641;BME280;4358;42.100;25.222;2022-11-30T11:26:03;100498.47;;;8.37;100.00
8641;BME280;4358;42.100;25.222;2022-11-30T11:28:31;100494.69;;;8.43;100.00
8641;BME280;4358;42.100;25.222;2022-11-30T11:30:58;100491.34;;;8.39;100.00
8641;BME280;4358;42.100;25.222;2022-11-30T11:33:27;100478.56;;;8.30;100.00
8641;BME280;4358;42.100;25.222;2022-11-30T11:36:11;100491.84;;;8.47;100.00
8641;BME280;4358;42.100;25.222;2022-11-30T11:38:41;100488.47;;;8.44;100.00
8641;BME280;4358;42.100;25.222;2022-11-30T11:41:15;100495.25;;;8.49;100.00
8641;BME280;4358;42.100;25.222;2022-11-30T11:43:57;100484.53;;;8.53;100.00
8641;BME280;4358;42.100;25.222;2022-11-30T11:46:25;100483.56;;;8.54;100.00
8641;BME280;4358;42.100;25.222;2022-11-30T11:48:57;100485.44;;;8.52;100.00
8641;BME280;4358;42.100;25.222;2022-11-30T11:51:29;100477.81;;;8.45;100.00
8641;BME280;4358;42.100;25.222;2022-11-30T11:53:57;100475.97;;;8.47;100.00
8641;BME280;4358;42.100;25.222;2022-11-30T11:56:29;100476.88;;;8.46;100.00
8641;BME280;4358;42.100;25.222;2022-11-30T11:59:00;100482.94;;;8.48;100.00
8641;BME280;4358;42.100;25.222;2022-11-30T12:01:40;100483.72;;;8.50;100.00
8641;BME280;4358;42.100;25.222;2022-11-30T12:04:28;100490.25;;;8.43;100.00
8641;BME280;4358;42.100;25.222;2022-11-30T12:07:01;100485.44;;;8.52;100.00
8641;BME280;4358;42.100;25.222;2022-11-30T12:09:32;100488.22;;;8.48;100.00
8641;BME280;4358;42.100;25.222;2022-11-30T12:12:02;100483.72;;;8.50;100.00
8641;BME280;4358;42.100;25.222;2022-11-30T12:14:30;100486.38;;;8.50;100.00
8641;BME280;4358;42.100;25.222;2022-11-30T12:17:05;100488.84;;;8.54;100.00
8641;BME280;4358;42.100;25.222;2022-11-30T12:19:41;100487.34;;;8.67;100.00
8641;BME280;4358;42.100;25.222;2022-11-30T12:22:23;100483.47;;;8.74;100.00
8641;BME280;4358;42.100;25.222;2022-11-30T12:25:17;100492.22;;;8.74;100.00
8641;BME280;4358;42.100;25.222;2022-11-30T12:27:55;100495.09;;;8.70;100.00
8641;BME280;4358;42.100;25.222;2022-11-30T12:30:30;100491.69;;;8.68;100.00
8641;BME280;4358;42.100;25.222;2022-11-30T12:33:12;100496.44;;;8.61;100.00
8641;BME280;4358;42.100;25.222;2022-11-30T12:35:49;100487.16;;;8.53;100.00
8641;BME280;4358;42.100;25.222;2022-11-30T12:38:28;100493.69;;;8.45;100.00
8641;BME280;4358;42.100;25.222;2022-11-30T12:41:02;100493.44;;;8.50;100.00
8641;BME280;4358;42.100;25.222;2022-11-30T12:43:40;100489.03;;;8.50;100.00
8641;BME280;4358;42.100;25.222;2022-11-30T12:46:14;100488.41;;;8.45;100.00
8641;BME280;4358;42.100;25.222;2022-11-30T12:48:51;100494.31;;;8.50;100.00
8641;BME280;4358;42.100;25.222;2022-11-30T12:51:28;100493.84;;;8.60;100.00
8641;BME280;4358;42.100;25.222;2022-11-30T12:54:02;100505.38;;;8.59;100.00
8641;BME280;4358;42.100;25.222;2022-11-30T12:56:39;100499.00;;;8.63;100.00
8641;BME280;4358;42.100;25.222;2022-11-30T12:59:17;100506.44;;;8.55;100.00
8641;BME280;4358;42.100;25.222;2022-11-30T13:02:02;100501.63;;;8.45;100.00
8641;BME280;4358;42.100;25.222;2022-11-30T13:04:38;100507.78;;;8.46;100.00
8641;BME280;4358;42.100;25.222;2022-11-30T13:07:12;100496.16;;;8.31;100.00
8641;BME280;4358;42.100;25.222;2022-11-30T13:09:46;100507.38;;;8.36;100.00
8641;BME280;4358;42.100;25.222;2022-11-30T13:12:25;100512.03;;;8.31;100.00